createdAt,value
2018-12-27T00:01:28.237Z,100181.20
2018-12-27T00:02:59.099Z,100182.94
2018-12-27T00:04:34.452Z,100173.88
2018-12-27T00:06:06.536Z,100173.53
2018-12-27T00:07:37.769Z,100174.44
2018-12-27T00:09:11.977Z,100167.68
2018-12-27T00:10:46.217Z,100163.20
2018-12-27T00:12:18.600Z,100156.13
2018-12-27T00:13:51.372Z,100162.86
2018-12-27T00:15:24.977Z,100151.07
2018-12-27T00:16:59.685Z,100144.91
2018-12-27T00:18:30.703Z,100150.05
2018-12-27T00:20:01.895Z,100152.80
2018-12-27T00:21:31.751Z,100149.61
2018-12-27T00:23:06.638Z,100153.35
2018-12-27T00:24:37.095Z,100154.61
2018-12-27T00:26:11.059Z,100160.11
2018-12-27T00:27:42.317Z,100153.47
2018-12-27T00:29:12.741Z,100151.83
2018-12-27T00:30:44.072Z,100150.33
2018-12-27T00:32:18.941Z,100148.95
2018-12-27T00:33:49.765Z,100151.00
2018-12-27T00:35:22.928Z,100145.62
2018-12-27T00:36:56.630Z,100142.43
2018-12-27T00:38:29.466Z,100145.62
2018-12-27T00:39:59.700Z,100144.95
2018-12-27T00:41:29.552Z,100146.88
2018-12-27T00:43:02.408Z,100140.15
2018-12-27T00:44:34.238Z,100147.90
2018-12-27T00:46:03.990Z,100149.66
2018-12-27T00:47:37.864Z,100151.16
2018-12-27T00:49:11.556Z,100149.43
2018-12-27T00:50:46.523Z,100149.39
2018-12-27T00:52:20.993Z,100144.47
2018-12-27T00:53:50.928Z,100140.81
2018-12-27T00:55:23.075Z,100141.80
2018-12-27T00:56:54.127Z,100143.06
2018-12-27T00:58:29.235Z,100138.49
2018-12-27T01:00:00.160Z,100132.05
2018-12-27T01:01:34.369Z,100136.16
2018-12-27T01:03:11.122Z,100135.11
2018-12-27T01:04:38.722Z,100136.16
2018-12-27T01:06:12.713Z,100137.42
2018-12-27T01:07:47.175Z,100132.88
2018-12-27T01:09:24.702Z,100135.39
2018-12-27T01:10:55.531Z,100133.66
2018-12-27T01:12:30.104Z,100134.72
2018-12-27T01:14:02.285Z,100127.12
2018-12-27T01:15:37.326Z,100134.63
2018-12-27T01:17:08.511Z,100132.70
2018-12-27T01:18:46.758Z,100135.65
2018-12-27T01:20:20.463Z,100139.42
2018-12-27T01:21:56.620Z,100138.75
2018-12-27T01:23:27.792Z,100132.93
2018-12-27T01:25:00.489Z,100127.66
2018-12-27T01:26:31.490Z,100133.72
2018-12-27T01:28:05.734Z,100133.01
2018-12-27T01:29:35.715Z,100129.82
2018-12-27T01:31:08.569Z,100129.59
2018-12-27T01:32:44.034Z,100131.63
2018-12-27T01:34:15.013Z,100130.25
2018-12-27T01:35:46.375Z,100137.38
2018-12-27T01:37:23.602Z,100133.91
2018-12-27T01:38:54.855Z,100134.03
2018-12-27T01:40:25.604Z,100139.11
2018-12-27T01:41:56.122Z,100140.61
2018-12-27T01:43:27.299Z,100141.40
2018-12-27T01:44:58.137Z,100140.85
2018-12-27T01:46:29.130Z,100138.42
2018-12-27T01:48:03.025Z,100148.41
2018-12-27T01:49:33.096Z,100144.91
2018-12-27T01:51:04.081Z,100146.36
2018-12-27T01:52:35.130Z,100145.34
2018-12-27T01:54:06.104Z,100142.00
2018-12-27T01:55:48.109Z,100144.05
2018-12-27T01:57:20.067Z,100144.23
2018-12-27T01:58:55.189Z,100146.52
2018-12-27T02:00:26.084Z,100147.97
2018-12-27T02:01:58.411Z,100151.78
2018-12-27T02:03:32.209Z,100145.19
2018-12-27T02:05:03.115Z,100154.42
2018-12-27T02:06:34.463Z,100149.08
2018-12-27T02:08:05.460Z,100147.81
2018-12-27T02:09:38.909Z,100147.70
2018-12-27T02:11:13.266Z,100150.22
2018-12-27T02:12:43.820Z,100149.78
2018-12-27T02:14:14.819Z,100143.41
2018-12-27T02:15:47.687Z,100149.78
2018-12-27T02:17:25.613Z,100137.83
2018-12-27T02:19:00.703Z,100142.16
2018-12-27T02:20:34.811Z,100143.95
2018-12-27T02:22:09.558Z,100144.31
2018-12-27T02:23:40.689Z,100141.52
2018-12-27T02:25:12.724Z,100143.32
2018-12-27T02:26:47.614Z,100138.16
2018-12-27T02:28:21.928Z,100134.70
2018-12-27T02:29:52.884Z,100137.33
2018-12-27T02:31:27.037Z,100126.77
2018-12-27T02:33:02.180Z,100131.27
2018-12-27T02:34:34.340Z,100125.56
2018-12-27T02:36:07.833Z,100134.02
2018-12-27T02:37:42.036Z,100129.70
2018-12-27T02:39:18.156Z,100132.23
2018-12-27T02:40:49.354Z,100130.48
2018-12-27T02:42:20.319Z,100117.24
2018-12-27T02:43:54.175Z,100110.72
2018-12-27T02:45:30.151Z,100101.23
2018-12-27T02:47:22.715Z,100095.70
2018-12-27T02:48:55.711Z,100097.02
2018-12-27T02:50:32.651Z,100094.81
2018-12-27T02:52:06.969Z,100093.91
2018-12-27T02:53:40.617Z,100090.25
2018-12-27T02:55:16.510Z,100088.76
2018-12-27T02:56:50.491Z,100089.77
2018-12-27T02:58:24.353Z,100088.88
2018-12-27T02:59:58.767Z,100079.88
2018-12-27T03:01:29.951Z,100084.60
2018-12-27T03:03:00.360Z,100079.38
2018-12-27T03:04:31.988Z,100080.16
2018-12-27T03:06:06.935Z,100087.12
2018-12-27T03:07:42.184Z,100089.27
2018-12-27T03:09:16.005Z,100087.97
2018-12-27T03:10:46.660Z,100086.00
2018-12-27T03:12:20.783Z,100078.98
2018-12-27T03:13:54.597Z,100075.10
2018-12-27T03:15:30.346Z,100069.12
2018-12-27T03:17:05.722Z,100067.08
2018-12-27T03:18:37.678Z,100070.53
2018-12-27T03:20:08.930Z,100079.11
2018-12-27T03:21:43.086Z,100072.65
2018-12-27T03:23:14.095Z,100068.14
2018-12-27T03:24:48.073Z,100065.45
2018-12-27T03:26:22.636Z,100067.06
2018-12-27T03:27:55.490Z,100064.14
2018-12-27T03:29:28.579Z,100060.23
2018-12-27T03:31:01.551Z,100055.97
2018-12-27T03:32:31.728Z,100053.87
2018-12-27T03:34:02.656Z,100050.76
2018-12-27T03:35:33.868Z,100041.14
2018-12-27T03:37:05.021Z,100044.28
2018-12-27T03:38:35.921Z,100043.48
2018-12-27T03:40:09.973Z,100036.92
2018-12-27T03:41:41.040Z,100041.50
2018-12-27T03:43:14.372Z,100048.42
2018-12-27T03:44:45.710Z,100038.84
2018-12-27T03:46:15.516Z,100034.75
2018-12-27T03:47:47.528Z,100033.69
2018-12-27T03:49:18.558Z,100029.77
2018-12-27T03:50:48.550Z,100027.61
2018-12-27T03:52:20.737Z,100027.91
2018-12-27T03:53:59.631Z,100017.70
2018-12-27T03:55:47.856Z,100014.38
2018-12-27T03:57:21.586Z,100019.13
2018-12-27T03:59:00.787Z,100013.30
2018-12-27T04:00:36.143Z,100005.92
2018-12-27T04:02:11.161Z,100006.54
2018-12-27T04:03:42.196Z,100002.30
2018-12-27T04:05:13.584Z,100009.31
2018-12-27T04:06:44.593Z,100011.70
2018-12-27T04:08:18.095Z,100007.25
2018-12-27T04:09:49.103Z,100015.94
2018-12-27T04:11:24.096Z,100015.23
2018-12-27T04:12:55.084Z,100016.61
2018-12-27T04:14:27.261Z,100016.36
2018-12-27T04:15:58.284Z,100019.78
2018-12-27T04:17:30.932Z,100023.37
2018-12-27T04:19:01.541Z,100019.36
2018-12-27T04:20:42.055Z,100017.62
2018-12-27T04:22:16.955Z,100023.02
2018-12-27T04:23:47.880Z,100024.27
2018-12-27T04:25:23.105Z,100022.59
2018-12-27T04:26:54.037Z,100023.91
2018-12-27T04:28:28.340Z,100021.85
2018-12-27T04:30:04.748Z,100013.81
2018-12-27T04:31:39.971Z,100010.03
2018-12-27T04:33:16.571Z,100014.97
2018-12-27T04:34:51.482Z,100021.14
2018-12-27T04:36:26.462Z,100023.17
2018-12-27T04:37:56.624Z,100017.23
2018-12-27T04:39:33.743Z,100019.98
2018-12-27T04:41:04.662Z,100030.95
2018-12-27T04:42:36.378Z,100028.53
2018-12-27T04:44:09.119Z,100018.69
2018-12-27T04:45:40.031Z,100019.11
2018-12-27T04:47:11.857Z,100018.75
2018-12-27T04:48:45.783Z,100021.39
2018-12-27T04:50:22.881Z,100017.97
2018-12-27T04:51:56.509Z,100017.97
2018-12-27T04:53:31.265Z,100020.63
2018-12-27T04:55:02.516Z,100018.71
2018-12-27T04:56:33.594Z,100017.58
2018-12-27T04:58:05.622Z,100022.20
2018-12-27T04:59:35.665Z,100020.35
2018-12-27T05:01:09.614Z,100023.58
2018-12-27T05:02:40.753Z,100019.25
2018-12-27T05:04:18.040Z,100018.92
2018-12-27T05:05:50.100Z,100012.81
2018-12-27T05:07:24.853Z,100012.75
2018-12-27T05:09:06.878Z,100020.72
2018-12-27T05:10:39.782Z,100017.95
2018-12-27T05:12:13.506Z,100014.98
2018-12-27T05:13:45.700Z,100020.06
2018-12-27T05:15:20.018Z,100022.61
2018-12-27T05:16:54.962Z,100023.87
2018-12-27T05:18:26.227Z,100022.61
2018-12-27T05:20:01.369Z,100020.97
2018-12-27T05:21:35.371Z,100025.63
2018-12-27T05:23:09.184Z,100021.38
2018-12-27T05:24:39.321Z,100025.70
2018-12-27T05:26:13.582Z,100016.41
2018-12-27T05:27:47.509Z,100017.54
2018-12-27T05:29:30.018Z,100015.20
2018-12-27T05:31:04.089Z,100011.48
2018-12-27T05:32:36.174Z,100000.83
2018-12-27T05:34:10.450Z,100002.34
2018-12-27T05:35:49.959Z,100007.61
2018-12-27T05:37:21.762Z,100009.94
2018-12-27T05:38:51.815Z,100011.53
2018-12-27T05:40:21.363Z,100007.05
2018-12-27T05:41:51.428Z,100005.19
2018-12-27T05:43:21.436Z,100014.86
2018-12-27T05:44:51.544Z,100008.03
2018-12-27T05:46:21.402Z,100013.44
2018-12-27T05:47:51.344Z,100008.81
2018-12-27T05:49:20.870Z,100018.05
2018-12-27T05:50:50.661Z,100016.91
2018-12-27T05:52:20.394Z,100025.00
2018-12-27T05:53:50.473Z,100023.19
2018-12-27T05:55:20.077Z,100025.23
2018-12-27T05:56:49.732Z,100025.66
2018-12-27T05:58:19.412Z,100033.16
2018-12-27T05:59:49.283Z,100037.03
2018-12-27T06:01:18.949Z,100036.78
2018-12-27T06:02:53.783Z,100035.24
2018-12-27T06:04:23.205Z,100032.60
2018-12-27T06:05:52.842Z,100032.12
2018-12-27T06:07:23.032Z,100029.83
2018-12-27T06:08:53.391Z,100034.95
2018-12-27T06:10:22.962Z,100034.89
2018-12-27T06:11:53.189Z,100036.13
2018-12-27T06:13:22.815Z,100033.44
2018-12-27T06:14:52.583Z,100029.16
2018-12-27T06:16:22.235Z,100026.22
2018-12-27T06:17:52.006Z,100022.88
2018-12-27T06:19:22.131Z,100023.16
2018-12-27T06:20:51.826Z,100025.67
2018-12-27T06:22:21.501Z,100013.59
2018-12-27T06:23:51.582Z,100018.08
2018-12-27T06:25:21.291Z,100019.09
2018-12-27T06:26:54.503Z,100018.73
2018-12-27T06:28:24.229Z,100013.89
2018-12-27T06:29:53.881Z,100009.80
2018-12-27T06:31:23.891Z,100014.05
2018-12-27T06:32:54.055Z,100014.72
2018-12-27T06:34:26.589Z,100012.03
2018-12-27T06:35:56.515Z,100007.13
2018-12-27T06:37:26.343Z,100010.78
2018-12-27T06:38:56.381Z,100008.13
2018-12-27T06:40:26.252Z,100006.29
2018-12-27T06:41:56.058Z,100003.98
2018-12-27T06:43:25.852Z,100001.84
2018-12-27T06:44:55.492Z,99999.83
2018-12-27T06:46:25.292Z,100002.67
2018-12-27T06:47:55.211Z,100000.00
2018-12-27T06:49:25.159Z,100001.45
2018-12-27T06:50:55.032Z,99991.58
2018-12-27T06:52:24.789Z,99996.20
2018-12-27T06:53:54.407Z,99994.70
2018-12-27T06:55:24.276Z,99992.19
2018-12-27T06:56:54.246Z,99989.92
2018-12-27T06:58:23.810Z,99988.12
2018-12-27T06:59:54.944Z,99993.05
2018-12-27T07:01:24.825Z,99983.75
2018-12-27T07:02:54.356Z,99982.16
2018-12-27T07:04:24.556Z,99980.90
2018-12-27T07:05:54.263Z,99992.81
2018-12-27T07:07:24.115Z,99991.91
2018-12-27T07:08:53.720Z,99986.27
2018-12-27T07:10:23.479Z,99987.84
2018-12-27T07:11:53.513Z,99983.75
2018-12-27T07:13:23.427Z,99990.05
2018-12-27T07:14:53.352Z,99991.98
2018-12-27T07:16:22.971Z,99992.87
2018-12-27T07:17:52.749Z,99988.33
2018-12-27T07:19:22.425Z,99990.72
2018-12-27T07:20:52.181Z,99988.20
2018-12-27T07:22:22.352Z,99989.45
2018-12-27T07:23:52.434Z,99989.58
2018-12-27T07:25:22.185Z,99997.72
2018-12-27T07:26:52.192Z,99995.33
2018-12-27T07:28:21.785Z,100001.92
2018-12-27T07:29:54.652Z,100004.19
2018-12-27T07:31:24.408Z,100007.25
2018-12-27T07:32:54.776Z,100006.58
2018-12-27T07:34:24.478Z,100004.48
2018-12-27T07:35:54.363Z,100011.43
2018-12-27T07:37:24.076Z,100003.16
2018-12-27T07:38:53.726Z,100006.45
2018-12-27T07:40:23.753Z,100011.51
2018-12-27T07:41:53.527Z,100015.34
2018-12-27T07:43:23.291Z,100017.88
2018-12-27T07:44:52.937Z,100006.35
2018-12-27T07:46:22.579Z,100013.51
2018-12-27T07:47:52.304Z,100012.53
2018-12-27T07:49:22.312Z,100014.64
2018-12-27T07:50:52.076Z,100012.61
2018-12-27T07:52:21.842Z,100017.63
2018-12-27T07:53:51.715Z,100018.41
2018-12-27T07:55:21.633Z,100008.23
2018-12-27T07:56:51.305Z,100009.61
2018-12-27T07:58:21.013Z,100013.55
2018-12-27T07:59:50.753Z,100018.17
2018-12-27T08:01:23.190Z,100011.69
2018-12-27T08:02:52.717Z,100013.50
2018-12-27T08:04:22.228Z,100015.23
2018-12-27T08:05:52.213Z,100013.73
2018-12-27T08:07:22.129Z,100011.88
2018-12-27T08:08:52.120Z,100007.68
2018-12-27T08:10:21.838Z,100013.07
2018-12-27T08:11:51.680Z,100012.70
2018-12-27T08:13:21.422Z,100015.70
2018-12-27T08:14:51.063Z,100013.63
2018-12-27T08:16:20.706Z,100012.89
2018-12-27T08:17:50.853Z,100012.47
2018-12-27T08:19:20.647Z,100016.90
2018-12-27T08:20:51.398Z,100016.02
2018-12-27T08:22:21.726Z,100020.85
2018-12-27T08:23:51.463Z,100011.16
2018-12-27T08:25:21.301Z,100019.16
2018-12-27T08:26:51.002Z,100022.48
2018-12-27T08:28:20.802Z,100017.39
2018-12-27T08:29:50.436Z,100020.67
2018-12-27T08:31:20.270Z,100020.50
2018-12-27T08:32:50.452Z,100014.43
2018-12-27T08:34:20.172Z,100017.77
2018-12-27T08:35:49.794Z,100018.55
2018-12-27T08:38:01.435Z,100013.67
2018-12-27T08:39:31.046Z,100012.61
2018-12-27T08:41:01.033Z,100015.16
2018-12-27T08:42:31.640Z,100015.03
2018-12-27T08:44:01.327Z,100017.55
2018-12-27T08:45:31.800Z,100018.27
2018-12-27T08:47:26.552Z,100023.08
2018-12-27T08:49:03.289Z,100025.11
2018-12-27T08:50:33.166Z,100020.94
2018-12-27T08:52:03.206Z,100023.62
2018-12-27T08:53:33.768Z,100023.55
2018-12-27T08:55:14.434Z,100023.03
2018-12-27T08:56:44.264Z,100025.03
2018-12-27T08:58:14.690Z,100027.61
2018-12-27T08:59:44.582Z,100027.42
2018-12-27T09:01:14.834Z,100032.02
2018-12-27T09:02:45.417Z,100026.40
2018-12-27T09:04:15.406Z,100022.37
2018-12-27T09:05:47.702Z,100023.85
2018-12-27T09:07:17.576Z,100026.11
2018-12-27T09:08:47.364Z,100020.64
2018-12-27T09:10:17.162Z,100020.84
2018-12-27T09:11:49.050Z,100023.66
2018-12-27T09:13:19.256Z,100020.16
2018-12-27T09:14:49.284Z,100020.16
2018-12-27T09:16:20.063Z,100018.35
2018-12-27T09:18:02.796Z,100012.61
2018-12-27T09:19:32.870Z,100016.67
2018-12-27T09:21:02.733Z,100006.72
2018-12-27T09:22:32.646Z,100009.87
2018-12-27T09:24:02.646Z,100014.08
2018-12-27T09:25:32.958Z,100010.51
2018-12-27T09:27:02.881Z,99999.73
2018-12-27T09:28:54.265Z,100007.69
2018-12-27T09:30:24.384Z,99997.44
2018-12-27T09:31:54.323Z,99997.10
2018-12-27T09:33:24.589Z,99999.60
2018-12-27T09:34:54.479Z,100005.84
2018-12-27T09:36:24.390Z,100005.74
2018-12-27T09:37:54.513Z,100003.98
2018-12-27T09:39:24.415Z,99998.35
2018-12-27T09:40:54.456Z,99993.77
2018-12-27T09:42:24.423Z,99999.36
2018-12-27T09:43:54.447Z,99990.62
2018-12-27T09:45:24.374Z,99987.59
2018-12-27T09:46:54.525Z,99987.77
2018-12-27T09:48:24.711Z,99989.46
2018-12-27T09:49:54.697Z,99994.22
2018-12-27T09:51:25.262Z,99995.20
2018-12-27T09:52:55.509Z,99989.94
2018-12-27T09:54:26.130Z,99991.45
2018-12-27T09:56:26.916Z,99980.67
2018-12-27T09:57:59.775Z,99984.56
2018-12-27T09:59:30.210Z,99986.04
2018-12-27T10:01:00.604Z,99982.09
2018-12-27T10:02:31.312Z,99979.05
2018-12-27T10:04:08.190Z,99977.64
2018-12-27T10:05:42.457Z,99980.19
2018-12-27T10:07:12.992Z,99983.84
2018-12-27T10:08:44.222Z,99977.97
2018-12-27T10:10:14.088Z,99983.11
2018-12-27T10:11:44.542Z,99974.47
2018-12-27T10:13:14.350Z,99975.64
2018-12-27T10:14:44.258Z,99975.97
2018-12-27T10:16:14.282Z,99972.39
2018-12-27T10:17:44.205Z,99971.88
2018-12-27T10:19:14.157Z,99971.20
2018-12-27T10:20:53.878Z,99968.16
2018-12-27T10:22:23.762Z,99965.32
2018-12-27T10:23:53.531Z,99968.59
2018-12-27T10:25:23.617Z,99964.66
2018-12-27T10:26:53.494Z,99959.95
2018-12-27T10:28:23.273Z,99961.73
2018-12-27T10:29:53.311Z,99958.63
2018-12-27T10:34:43.337Z,99956.59
2018-12-27T10:36:13.546Z,99958.11
2018-12-27T10:37:44.378Z,99956.67
2018-12-27T10:39:15.230Z,99953.27
2018-12-27T10:40:45.203Z,99951.77
2018-12-27T10:42:15.515Z,99945.44
2018-12-27T10:43:45.418Z,99947.53
2018-12-27T10:45:15.367Z,99947.73
2018-12-27T10:46:45.729Z,99943.01
2018-12-27T10:48:16.078Z,99940.84
2018-12-27T10:54:55.833Z,99942.91
2018-12-27T10:56:29.392Z,99945.00
2018-12-27T10:57:59.878Z,99942.70
2018-12-27T10:59:29.531Z,99947.70
2018-12-27T11:02:47.422Z,99945.38
2018-12-27T11:04:17.364Z,99946.48
2018-12-27T11:05:48.774Z,99942.26
2018-12-27T11:07:19.079Z,99937.79
2018-12-27T11:08:49.079Z,99936.16
2018-12-27T11:10:19.183Z,99934.95
2018-12-27T11:11:49.295Z,99931.89
2018-12-27T11:13:19.388Z,99927.80
2018-12-27T11:14:49.263Z,99923.57
2018-12-27T11:16:19.560Z,99916.10
2018-12-27T11:17:49.618Z,99908.59
2018-12-27T11:19:19.917Z,99912.13
2018-12-27T11:20:49.995Z,99902.81
2018-12-27T11:22:19.716Z,99897.64
2018-12-27T11:23:49.501Z,99897.70
2018-12-27T11:25:19.338Z,99890.27
2018-12-27T11:26:49.423Z,99885.93
2018-12-27T11:28:19.226Z,99885.89
2018-12-27T11:29:48.926Z,99884.66
2018-12-27T11:31:18.643Z,99881.02
2018-12-27T11:32:48.460Z,99880.44
2018-12-27T11:34:18.628Z,99877.12
2018-12-27T11:35:55.584Z,99872.27
2018-12-27T11:37:20.759Z,99871.16
2018-12-27T11:38:51.178Z,99865.52
2018-12-27T11:40:21.247Z,99873.91
2018-12-27T11:41:54.317Z,99869.78
2018-12-27T11:43:24.293Z,99865.92
2018-12-27T11:44:54.366Z,99865.05
2018-12-27T11:46:24.212Z,99862.77
2018-12-27T11:47:54.059Z,99862.19
2018-12-27T11:49:23.853Z,99861.98
2018-12-27T11:50:53.673Z,99862.77
2018-12-27T11:52:23.547Z,99861.39
2018-12-27T11:53:53.707Z,99860.95
2018-12-27T11:55:23.498Z,99854.49
2018-12-27T11:56:53.573Z,99852.73
2018-12-27T11:58:23.257Z,99858.00
2018-12-27T11:59:53.042Z,99853.55
2018-12-27T12:01:22.866Z,99845.26
2018-12-27T12:02:52.853Z,99843.22
2018-12-27T12:04:22.950Z,99841.63
2018-12-27T12:05:52.791Z,99840.92
2018-12-27T12:07:22.841Z,99836.86
2018-12-27T12:08:52.558Z,99838.33
2018-12-27T12:10:22.812Z,99831.25
2018-12-27T12:11:52.568Z,99828.86
2018-12-27T12:13:22.194Z,99830.25
2018-12-27T12:14:52.365Z,99826.17
2018-12-27T12:16:22.349Z,99831.20
2018-12-27T12:17:52.096Z,99827.44
2018-12-27T12:19:22.189Z,99830.38
2018-12-27T12:20:52.425Z,99828.25
2018-12-27T12:22:22.374Z,99827.95
2018-12-27T12:23:52.257Z,99828.86
2018-12-27T12:25:22.256Z,99826.98
2018-12-27T12:26:51.994Z,99821.02
2018-12-27T12:28:21.864Z,99819.95
2018-12-27T12:29:51.745Z,99818.69
2018-12-27T12:31:21.785Z,99820.65
2018-12-27T12:32:51.627Z,99817.71
2018-12-27T12:34:21.699Z,99814.84
2018-12-27T12:35:51.643Z,99809.61
2018-12-27T12:37:21.768Z,99812.38
2018-12-27T12:38:51.683Z,99809.84
2018-12-27T12:40:21.299Z,99806.21
2018-12-27T12:41:51.067Z,99809.95
2018-12-27T12:43:20.955Z,99808.84
2018-12-27T12:44:50.613Z,99807.25
2018-12-27T12:46:20.190Z,99815.21
2018-12-27T12:47:49.850Z,99808.95
2018-12-27T12:49:19.630Z,99805.34
2018-12-27T12:50:49.580Z,99801.00
2018-12-27T12:52:19.240Z,99795.26
2018-12-27T12:53:48.755Z,99803.77
2018-12-27T12:55:18.329Z,99796.00
2018-12-27T12:56:47.992Z,99798.72
2018-12-27T12:58:17.896Z,99801.77
2018-12-27T12:59:47.678Z,99798.53
2018-12-27T13:01:17.439Z,99801.94
2018-12-27T13:02:47.050Z,99801.57
2018-12-27T13:04:17.820Z,99797.43
2018-12-27T13:05:47.557Z,99801.73
2018-12-27T13:07:17.137Z,99803.17
2018-12-27T13:08:47.073Z,99805.91
2018-12-27T13:10:16.930Z,99801.56
2018-12-27T13:11:46.592Z,99811.68
2018-12-27T13:13:16.294Z,99811.08
2018-12-27T13:14:45.868Z,99806.91
2018-12-27T13:16:16.004Z,99810.72
2018-12-27T13:17:45.759Z,99809.81
2018-12-27T13:19:16.220Z,99811.08
2018-12-27T13:20:46.010Z,99811.98
2018-12-27T13:22:16.431Z,99808.34
2018-12-27T13:23:46.485Z,99808.72
2018-12-27T13:25:16.084Z,99806.91
2018-12-27T13:26:45.876Z,99800.05
2018-12-27T13:28:16.278Z,99798.81
2018-12-27T13:29:46.301Z,99797.91
2018-12-27T13:31:15.993Z,99800.27
2018-12-27T13:32:45.965Z,99788.67
2018-12-27T13:34:15.915Z,99791.23
2018-12-27T13:35:45.788Z,99790.50
2018-12-27T13:37:15.572Z,99788.53
2018-12-27T13:38:45.415Z,99789.43
2018-12-27T13:40:15.544Z,99788.53
2018-12-27T13:41:45.594Z,99788.87
2018-12-27T13:43:15.433Z,99789.20
2018-12-27T13:44:45.137Z,99790.27
2018-12-27T13:46:14.931Z,99784.80
2018-12-27T13:47:44.549Z,99782.64
2018-12-27T13:49:14.272Z,99786.27
2018-12-27T13:50:46.614Z,99783.17
2018-12-27T13:52:16.644Z,99784.41
2018-12-27T13:53:46.499Z,99785.80
2018-12-27T13:55:16.580Z,99788.63
2018-12-27T13:56:46.325Z,99780.33
2018-12-27T13:58:16.023Z,99778.50
2018-12-27T13:59:46.203Z,99778.83
2018-12-27T14:01:16.029Z,99778.30
2018-12-27T14:02:46.020Z,99774.16
2018-12-27T14:04:15.713Z,99782.98
2018-12-27T14:05:45.672Z,99779.31
2018-12-27T14:07:17.210Z,99777.68
2018-12-27T14:08:47.133Z,99781.36
2018-12-27T14:10:16.997Z,99772.33
2018-12-27T14:11:46.947Z,99772.00
2018-12-27T14:13:16.534Z,99778.70
2018-12-27T14:14:46.130Z,99770.56
2018-12-27T14:16:15.692Z,99774.53
2018-12-27T14:17:45.372Z,99770.73
2018-12-27T14:19:15.245Z,99770.48
2018-12-27T14:20:44.762Z,99773.02
2018-12-27T14:22:14.271Z,99767.02
2018-12-27T14:23:43.793Z,99772.62
2018-12-27T14:25:13.963Z,99770.81
2018-12-27T14:26:43.470Z,99770.86
2018-12-27T14:28:13.016Z,99775.15
2018-12-27T14:29:43.170Z,99779.84
2018-12-27T14:31:12.804Z,99783.27
2018-12-27T14:32:42.335Z,99785.43
2018-12-27T14:34:11.866Z,99784.66
2018-12-27T14:35:41.379Z,99784.48
2018-12-27T14:37:11.199Z,99787.72
2018-12-27T14:38:40.715Z,99785.30
2018-12-27T14:40:10.402Z,99790.78
2018-12-27T14:41:39.975Z,99790.62
2018-12-27T14:43:11.517Z,99785.98
2018-12-27T14:44:41.445Z,99783.66
2018-12-27T14:46:11.530Z,99787.61
2018-12-27T14:47:41.129Z,99782.55
2018-12-27T14:49:11.039Z,99780.75
2018-12-27T14:50:40.843Z,99786.56
2018-12-27T14:52:11.135Z,99786.78
2018-12-27T14:53:40.674Z,99785.92
2018-12-27T14:55:10.462Z,99783.18
2018-12-27T14:56:40.015Z,99784.08
2018-12-27T14:58:09.741Z,99789.31
2018-12-27T14:59:39.532Z,99779.34
2018-12-27T15:01:09.343Z,99782.59
2018-12-27T15:02:39.034Z,99777.86
2018-12-27T15:04:08.852Z,99779.87
2018-12-27T15:05:38.496Z,99778.96
2018-12-27T15:07:10.643Z,99781.82
2018-12-27T15:08:39.637Z,99778.91
2018-12-27T15:10:09.603Z,99777.65
2018-12-27T15:11:39.590Z,99783.44
2018-12-27T15:13:09.764Z,99778.13
2018-12-27T15:14:40.086Z,99776.48
2018-12-27T15:16:12.096Z,99777.05
2018-12-27T15:17:41.653Z,99778.48
2018-12-27T15:19:11.662Z,99773.58
2018-12-27T15:20:41.684Z,99776.48
2018-12-27T15:22:11.886Z,99767.31
2018-12-27T15:23:42.229Z,99772.75
2018-12-27T15:25:12.315Z,99775.80
2018-12-27T15:26:42.249Z,99773.43
2018-12-27T15:28:12.185Z,99772.00
2018-12-27T15:29:42.047Z,99775.06
2018-12-27T15:31:11.778Z,99772.09
2018-12-27T15:32:41.372Z,99767.66
2018-12-27T15:34:11.275Z,99772.34
2018-12-27T15:35:40.950Z,99773.03
2018-12-27T15:37:10.610Z,99765.38
2018-12-27T15:38:40.417Z,99772.90
2018-12-27T15:40:10.185Z,99769.57
2018-12-27T15:41:39.786Z,99774.55
2018-12-27T15:43:09.654Z,99775.66
2018-12-27T15:44:39.229Z,99774.09
2018-12-27T15:46:08.717Z,99777.34
2018-12-27T15:47:38.343Z,99777.30
2018-12-27T15:49:07.933Z,99774.41
2018-12-27T15:50:37.683Z,99774.09
2018-12-27T15:52:07.895Z,99772.36
2018-12-27T15:53:37.758Z,99766.94
2018-12-27T15:55:07.264Z,99770.16
2018-12-27T15:56:37.079Z,99774.63
2018-12-27T15:58:06.976Z,99768.98
2018-12-27T15:59:37.229Z,99766.04
2018-12-27T16:01:06.817Z,99774.55
2018-12-27T16:02:36.412Z,99774.95
2018-12-27T16:04:06.423Z,99778.59
2018-12-27T16:05:36.031Z,99771.55
2018-12-27T16:07:05.556Z,99784.34
2018-12-27T16:08:35.118Z,99774.80
2018-12-27T16:10:05.040Z,99774.22
2018-12-27T16:11:34.670Z,99777.20
2018-12-27T16:13:04.522Z,99777.28
2018-12-27T16:14:34.361Z,99777.50
2018-12-27T16:16:04.323Z,99777.64
2018-12-27T16:17:33.826Z,99772.59
2018-12-27T16:19:03.622Z,99776.38
2018-12-27T16:20:33.167Z,99774.89
2018-12-27T16:22:02.802Z,99778.61
2018-12-27T16:23:32.695Z,99785.60
2018-12-27T16:25:02.571Z,99782.86
2018-12-27T16:26:32.212Z,99788.28
2018-12-27T16:28:01.913Z,99784.44
2018-12-27T16:29:31.930Z,99777.73
2018-12-27T16:31:02.069Z,99782.06
2018-12-27T16:32:31.733Z,99779.87
2018-12-27T16:34:01.505Z,99782.88
2018-12-27T16:35:31.482Z,99784.93
2018-12-27T16:37:01.287Z,99780.72
2018-12-27T16:38:32.319Z,99785.08
2018-12-27T16:40:02.120Z,99782.28
2018-12-27T16:41:31.958Z,99784.34
2018-12-27T16:43:01.550Z,99785.23
2018-12-27T16:44:31.432Z,99789.48
2018-12-27T16:46:01.190Z,99783.38
2018-12-27T16:47:31.151Z,99786.36
2018-12-27T16:49:01.262Z,99791.45
2018-12-27T16:50:31.307Z,99791.52
2018-12-27T16:52:01.096Z,99790.70
2018-12-27T16:53:30.881Z,99790.82
2018-12-27T16:55:00.611Z,99790.39
2018-12-27T16:56:30.558Z,99787.51
2018-12-27T16:58:00.297Z,99796.20
2018-12-27T16:59:29.905Z,99796.20
2018-12-27T17:00:59.531Z,99794.25
2018-12-27T17:02:29.218Z,99795.30
2018-12-27T17:03:58.920Z,99801.67
2018-12-27T17:05:28.834Z,99798.13
2018-12-27T17:06:58.576Z,99803.03
2018-12-27T17:08:28.445Z,99800.44
2018-12-27T17:09:58.378Z,99802.97
2018-12-27T17:11:28.461Z,99800.35
2018-12-27T17:12:58.254Z,99801.47
2018-12-27T17:14:27.992Z,99798.34
2018-12-27T17:15:57.831Z,99801.47
2018-12-27T17:17:28.275Z,99800.30
2018-12-27T17:18:58.372Z,99796.14
2018-12-27T17:20:28.051Z,99798.31
2018-12-27T17:21:57.903Z,99798.70
2018-12-27T17:23:28.288Z,99799.12
2018-12-27T17:24:58.296Z,99799.06
2018-12-27T17:26:28.309Z,99806.03
2018-12-27T17:27:59.087Z,99809.95
2018-12-27T17:29:28.687Z,99813.38
2018-12-27T17:30:59.488Z,99809.49
2018-12-27T17:32:29.339Z,99812.26
2018-12-27T17:33:59.272Z,99808.86
2018-12-27T17:35:29.776Z,99809.83
2018-12-27T17:37:02.327Z,99815.27
2018-12-27T17:38:31.888Z,99811.75
2018-12-27T17:40:05.455Z,99806.70
2018-12-27T17:41:35.357Z,99810.34
2018-12-27T17:43:05.558Z,99802.94
2018-12-27T17:44:35.665Z,99803.28
2018-12-27T17:46:05.597Z,99815.28
2018-12-27T17:47:35.428Z,99812.31